sensor_id;sensor_type;location;lat;lon;timestamp;temperature;humidity
19680;DHT22;9989;48.962;9.182;2023-02-17T00:01:58;11.00;99.90
19680;DHT22;9989;48.962;9.182;2023-02-17T00:04:26;11.00;99.90
19680;DHT22;9989;48.962;9.182;2023-02-17T00:06:51;11.00;99.90
19680;DHT22;9989;48.962;9.182;2023-02-17T00:09:17;11.00;99.90
19680;DHT22;9989;48.962;9.182;2023-02-17T00:11:42;11.00;99.90
19680;DHT22;9989;48.962;9.182;2023-02-17T00:14:11;11.00;99.90
19680;DHT22;9989;48.962;9.182;2023-02-17T00:16:37;11.00;99.90
19680;DHT22;9989;48.962;9.182;2023-02-17T00:19:03;11.10;99.90
19680;DHT22;9989;48.962;9.182;2023-02-17T00:21:57;11.10;99.90
19680;DHT22;9989;48.962;9.182;2023-02-17T00:24:24;11.10;99.90
19680;DHT22;9989;48.962;9.182;2023-02-17T00:26:50;11.20;99.90
19680;DHT22;9989;48.962;9.182;2023-02-17T00:29:16;11.20;99.90
19680;DHT22;9989;48.962;9.182;2023-02-17T00:31:42;11.20;99.90
19680;DHT22;9989;48.962;9.182;2023-02-17T00:34:08;11.20;99.90
19680;DHT22;9989;48.962;9.182;2023-02-17T00:36:34;11.20;99.90
19680;DHT22;9989;48.962;9.182;2023-02-17T00:39:00;11.20;99.90
19680;DHT22;9989;48.962;9.182;2023-02-17T00:41:28;11.20;99.90
19680;DHT22;9989;48.962;9.182;2023-02-17T00:43:54;11.30;99.90
19680;DHT22;9989;48.962;9.182;2023-02-17T00:46:20;11.30;99.90
19680;DHT22;9989;48.962;9.182;2023-02-17T00:48:47;11.30;99.90
19680;DHT22;9989;48.962;9.182;2023-02-17T00:51:14;11.30;99.90
19680;DHT22;9989;48.962;9.182;2023-02-17T00:53:39;11.30;99.90
19680;DHT22;9989;48.962;9.182;2023-02-17T00:56:06;11.40;99.90
19680;DHT22;9989;48.962;9.182;2023-02-17T00:58:32;11.40;99.90
19680;DHT22;9989;48.962;9.182;2023-02-17T01:00:58;11.40;99.90
19680;DHT22;9989;48.962;9.182;2023-02-17T01:03:25;11.40;99.90
19680;DHT22;9989;48.962;9.182;2023-02-17T01:05:51;11.50;99.90
19680;DHT22;9989;48.962;9.182;2023-02-17T01:08:17;11.50;99.90
19680;DHT22;9989;48.962;9.182;2023-02-17T01:10:45;11.50;99.90
19680;DHT22;9989;48.962;9.182;2023-02-17T01:13:11;11.50;99.90
19680;DHT22;9989;48.962;9.182;2023-02-17T01:15:42;11.50;99.90
19680;DHT22;9989;48.962;9.182;2023-02-17T01:18:08;11.50;99.90
19680;DHT22;9989;48.962;9.182;2023-02-17T01:20:35;11.50;99.90
19680;DHT22;9989;48.962;9.182;2023-02-17T01:23:01;11.50;99.90
19680;DHT22;9989;48.962;9.182;2023-02-17T01:25:27;11.50;99.90
19680;DHT22;9989;48.962;9.182;2023-02-17T01:27:53;11.50;99.90
19680;DHT22;9989;48.962;9.182;2023-02-17T01:30:19;11.50;99.50
19680;DHT22;9989;48.962;9.182;2023-02-17T01:32:44;11.40;99.90
19680;DHT22;9989;48.962;9.182;2023-02-17T01:35:10;11.50;99.90
19680;DHT22;9989;48.962;9.182;2023-02-17T01:37:36;11.40;99.90
19680;DHT22;9989;48.962;9.182;2023-02-17T01:40:03;11.50;99.90
19680;DHT22;9989;48.962;9.182;2023-02-17T01:42:29;11.50;99.40
19680;DHT22;9989;48.962;9.182;2023-02-17T01:48:05;11.50;99.20
19680;DHT22;9989;48.962;9.182;2023-02-17T01:50:36;11.50;99.30
19680;DHT22;9989;48.962;9.182;2023-02-17T01:53:04;11.50;99.40
19680;DHT22;9989;48.962;9.182;2023-02-17T01:55:32;11.50;99.70
19680;DHT22;9989;48.962;9.182;2023-02-17T01:58:00;11.40;99.90
19680;DHT22;9989;48.962;9.182;2023-02-17T02:00:27;11.40;99.90
19680;DHT22;9989;48.962;9.182;2023-02-17T02:02:54;11.40;99.90
19680;DHT22;9989;48.962;9.182;2023-02-17T02:05:21;11.40;99.90
19680;DHT22;9989;48.962;9.182;2023-02-17T02:07:47;11.40;99.90
19680;DHT22;9989;48.962;9.182;2023-02-17T02:10:16;11.40;99.90
19680;DHT22;9989;48.962;9.182;2023-02-17T02:12:43;11.40;99.90
19680;DHT22;9989;48.962;9.182;2023-02-17T02:15:15;11.40;99.90
19680;DHT22;9989;48.962;9.182;2023-02-17T02:28:57;11.40;99.90
19680;DHT22;9989;48.962;9.182;2023-02-17T02:34:12;11.30;99.90
19680;DHT22;9989;48.962;9.182;2023-02-17T02:36:44;11.30;99.90
19680;DHT22;9989;48.962;9.182;2023-02-17T02:39:15;11.30;99.90
19680;DHT22;9989;48.962;9.182;2023-02-17T02:41:44;11.30;99.90
19680;DHT22;9989;48.962;9.182;2023-02-17T02:44:14;11.30;99.90
19680;DHT22;9989;48.962;9.182;2023-02-17T02:46:40;11.30;99.90
19680;DHT22;9989;48.962;9.182;2023-02-17T02:49:06;11.30;99.90
19680;DHT22;9989;48.962;9.182;2023-02-17T02:51:36;11.30;99.90
19680;DHT22;9989;48.962;9.182;2023-02-17T03:07:24;11.20;99.90
19680;DHT22;9989;48.962;9.182;2023-02-17T03:09:54;11.30;99.90
19680;DHT22;9989;48.962;9.182;2023-02-17T03:12:21;11.30;99.90
19680;DHT22;9989;48.962;9.182;2023-02-17T03:14:49;11.30;99.90
19680;DHT22;9989;48.962;9.182;2023-02-17T03:17:15;11.30;99.90
19680;DHT22;9989;48.962;9.182;2023-02-17T03:19:42;11.20;99.90
19680;DHT22;9989;48.962;9.182;2023-02-17T03:22:23;11.30;99.90
19680;DHT22;9989;48.962;9.182;2023-02-17T03:24:49;11.30;99.90
19680;DHT22;9989;48.962;9.182;2023-02-17T03:27:15;11.30;99.90
19680;DHT22;9989;48.962;9.182;2023-02-17T03:29:40;11.20;99.90
19680;DHT22;9989;48.962;9.182;2023-02-17T03:32:06;11.30;99.90
19680;DHT22;9989;48.962;9.182;2023-02-17T03:34:32;11.30;99.90
19680;DHT22;9989;48.962;9.182;2023-02-17T03:36:58;11.20;99.90
19680;DHT22;9989;48.962;9.182;2023-02-17T03:39:24;11.20;99.90
19680;DHT22;9989;48.962;9.182;2023-02-17T03:41:49;11.30;99.90
19680;DHT22;9989;48.962;9.182;2023-02-17T03:44:17;11.30;99.90
19680;DHT22;9989;48.962;9.182;2023-02-17T03:46:42;11.30;99.90
19680;DHT22;9989;48.962;9.182;2023-02-17T03:49:08;11.20;99.90
19680;DHT22;9989;48.962;9.182;2023-02-17T03:51:34;11.30;99.90
19680;DHT22;9989;48.962;9.182;2023-02-17T03:53:59;11.30;99.90
19680;DHT22;9989;48.962;9.182;2023-02-17T03:56:25;11.30;99.90
19680;DHT22;9989;48.962;9.182;2023-02-17T03:58:51;11.30;99.90
19680;DHT22;9989;48.962;9.182;2023-02-17T04:01:16;11.30;99.90
19680;DHT22;9989;48.962;9.182;2023-02-17T04:03:42;11.30;99.90
19680;DHT22;9989;48.962;9.182;2023-02-17T04:06:09;11.30;99.90
19680;DHT22;9989;48.962;9.182;2023-02-17T04:08:35;11.30;99.90
19680;DHT22;9989;48.962;9.182;2023-02-17T04:11:02;11.30;99.90
19680;DHT22;9989;48.962;9.182;2023-02-17T04:13:29;11.30;99.90
19680;DHT22;9989;48.962;9.182;2023-02-17T04:15:55;11.30;99.90
19680;DHT22;9989;48.962;9.182;2023-02-17T04:18:21;11.30;99.90
19680;DHT22;9989;48.962;9.182;2023-02-17T04:20:48;11.30;99.90
19680;DHT22;9989;48.962;9.182;2023-02-17T04:23:15;11.30;99.90
19680;DHT22;9989;48.962;9.182;2023-02-17T04:25:41;11.30;99.90
19680;DHT22;9989;48.962;9.182;2023-02-17T04:28:07;11.30;99.90
19680;DHT22;9989;48.962;9.182;2023-02-17T04:30:34;11.30;99.90
19680;DHT22;9989;48.962;9.182;2023-02-17T04:32:59;11.30;99.90
19680;DHT22;9989;48.962;9.182;2023-02-17T04:35:26;11.30;99.90
19680;DHT22;9989;48.962;9.182;2023-02-17T04:37:52;11.30;99.90
19680;DHT22;9989;48.962;9.182;2023-02-17T04:40:18;11.30;99.90
19680;DHT22;9989;48.962;9.182;2023-02-17T04:42:44;11.30;99.90
19680;DHT22;9989;48.962;9.182;2023-02-17T04:45:10;11.30;99.90
19680;DHT22;9989;48.962;9.182;2023-02-17T04:47:36;11.30;99.90
19680;DHT22;9989;48.962;9.182;2023-02-17T04:50:03;11.30;99.90
19680;DHT22;9989;48.962;9.182;2023-02-17T04:52:28;11.30;99.90
19680;DHT22;9989;48.962;9.182;2023-02-17T04:54:54;11.40;99.90
19680;DHT22;9989;48.962;9.182;2023-02-17T04:57:19;11.40;99.90
19680;DHT22;9989;48.962;9.182;2023-02-17T04:59:45;11.30;99.90
19680;DHT22;9989;48.962;9.182;2023-02-17T05:02:11;11.30;99.90
19680;DHT22;9989;48.962;9.182;2023-02-17T05:04:36;11.30;99.90
19680;DHT22;9989;48.962;9.182;2023-02-17T05:07:02;11.30;99.90
19680;DHT22;9989;48.962;9.182;2023-02-17T05:09:28;11.30;99.90
19680;DHT22;9989;48.962;9.182;2023-02-17T05:11:54;11.30;99.90
19680;DHT22;9989;48.962;9.182;2023-02-17T05:14:19;11.30;99.90
19680;DHT22;9989;48.962;9.182;2023-02-17T05:16:45;11.30;99.90
19680;DHT22;9989;48.962;9.182;2023-02-17T05:19:11;11.30;99.90
19680;DHT22;9989;48.962;9.182;2023-02-17T05:21:37;11.30;99.90
19680;DHT22;9989;48.962;9.182;2023-02-17T05:24:03;11.30;99.90
19680;DHT22;9989;48.962;9.182;2023-02-17T05:26:28;11.30;99.90
19680;DHT22;9989;48.962;9.182;2023-02-17T05:28:54;11.40;99.90
19680;DHT22;9989;48.962;9.182;2023-02-17T05:31:20;11.40;99.90
19680;DHT22;9989;48.962;9.182;2023-02-17T05:33:45;11.40;99.90
19680;DHT22;9989;48.962;9.182;2023-02-17T05:36:11;11.40;99.90
19680;DHT22;9989;48.962;9.182;2023-02-17T05:38:38;11.40;99.90
19680;DHT22;9989;48.962;9.182;2023-02-17T05:41:04;11.40;99.90
19680;DHT22;9989;48.962;9.182;2023-02-17T05:43:30;11.40;99.90
19680;DHT22;9989;48.962;9.182;2023-02-17T05:45:55;11.40;99.90
19680;DHT22;9989;48.962;9.182;2023-02-17T05:48:21;11.40;99.90
19680;DHT22;9989;48.962;9.182;2023-02-17T05:50:47;11.40;99.90
19680;DHT22;9989;48.962;9.182;2023-02-17T05:53:12;11.40;99.90
19680;DHT22;9989;48.962;9.182;2023-02-17T05:55:38;11.40;99.90
19680;DHT22;9989;48.962;9.182;2023-02-17T05:58:04;11.40;99.90
19680;DHT22;9989;48.962;9.182;2023-02-17T06:00:30;11.50;99.90
19680;DHT22;9989;48.962;9.182;2023-02-17T06:02:55;11.50;99.90
19680;DHT22;9989;48.962;9.182;2023-02-17T06:05:21;11.50;99.90
19680;DHT22;9989;48.962;9.182;2023-02-17T06:07:47;11.50;99.90
19680;DHT22;9989;48.962;9.182;2023-02-17T06:10:12;11.50;99.90
19680;DHT22;9989;48.962;9.182;2023-02-17T06:12:38;11.50;99.90
19680;DHT22;9989;48.962;9.182;2023-02-17T06:15:04;11.50;99.90
19680;DHT22;9989;48.962;9.182;2023-02-17T06:17:29;11.60;99.90
19680;DHT22;9989;48.962;9.182;2023-02-17T06:19:55;11.60;99.90
19680;DHT22;9989;48.962;9.182;2023-02-17T06:22:21;11.60;99.90
19680;DHT22;9989;48.962;9.182;2023-02-17T06:24:46;11.70;99.90
19680;DHT22;9989;48.962;9.182;2023-02-17T06:27:12;11.60;99.90
19680;DHT22;9989;48.962;9.182;2023-02-17T06:29:37;11.70;99.90
19680;DHT22;9989;48.962;9.182;2023-02-17T06:32:03;11.70;99.90
19680;DHT22;9989;48.962;9.182;2023-02-17T06:34:29;11.70;99.90
19680;DHT22;9989;48.962;9.182;2023-02-17T06:36:54;11.70;99.90
19680;DHT22;9989;48.962;9.182;2023-02-17T06:39:21;11.70;99.90
19680;DHT22;9989;48.962;9.182;2023-02-17T06:41:46;11.70;99.90
19680;DHT22;9989;48.962;9.182;2023-02-17T06:44:12;11.70;99.90
19680;DHT22;9989;48.962;9.182;2023-02-17T06:46:37;11.70;99.90
19680;DHT22;9989;48.962;9.182;2023-02-17T06:49:03;11.70;99.90
19680;DHT22;9989;48.962;9.182;2023-02-17T06:51:29;11.70;99.90
19680;DHT22;9989;48.962;9.182;2023-02-17T06:53:55;11.70;99.90
19680;DHT22;9989;48.962;9.182;2023-02-17T06:56:20;11.70;99.90
19680;DHT22;9989;48.962;9.182;2023-02-17T06:58:46;11.70;99.90
19680;DHT22;9989;48.962;9.182;2023-02-17T07:01:16;11.70;99.90
19680;DHT22;9989;48.962;9.182;2023-02-17T07:03:42;11.60;99.90
19680;DHT22;9989;48.962;9.182;2023-02-17T07:06:08;11.60;99.90
19680;DHT22;9989;48.962;9.182;2023-02-17T07:08:34;11.60;99.90
19680;DHT22;9989;48.962;9.182;2023-02-17T07:11:07;11.50;99.90
19680;DHT22;9989;48.962;9.182;2023-02-17T07:13:33;11.60;99.90
19680;DHT22;9989;48.962;9.182;2023-02-17T07:15:58;11.60;99.90
19680;DHT22;9989;48.962;9.182;2023-02-17T07:18:24;11.60;99.90
19680;DHT22;9989;48.962;9.182;2023-02-17T07:20:49;11.60;99.90
19680;DHT22;9989;48.962;9.182;2023-02-17T07:23:15;11.50;99.90
19680;DHT22;9989;48.962;9.182;2023-02-17T07:25:41;11.50;99.90
19680;DHT22;9989;48.962;9.182;2023-02-17T07:28:06;11.50;99.90
19680;DHT22;9989;48.962;9.182;2023-02-17T07:30:36;11.50;99.90
19680;DHT22;9989;48.962;9.182;2023-02-17T07:33:03;11.50;99.90
19680;DHT22;9989;48.962;9.182;2023-02-17T07:35:29;11.50;99.90
19680;DHT22;9989;48.962;9.182;2023-02-17T07:37:56;11.60;99.90
19680;DHT22;9989;48.962;9.182;2023-02-17T07:40:22;11.60;99.90
19680;DHT22;9989;48.962;9.182;2023-02-17T07:42:48;11.60;99.90
19680;DHT22;9989;48.962;9.182;2023-02-17T07:45:14;11.60;99.90
19680;DHT22;9989;48.962;9.182;2023-02-17T07:47:39;11.70;99.90
19680;DHT22;9989;48.962;9.182;2023-02-17T07:50:05;11.70;99.90
19680;DHT22;9989;48.962;9.182;2023-02-17T07:52:31;11.70;99.90
19680;DHT22;9989;48.962;9.182;2023-02-17T07:54:57;11.80;99.90
19680;DHT22;9989;48.962;9.182;2023-02-17T07:57:22;11.80;99.90
19680;DHT22;9989;48.962;9.182;2023-02-17T07:59:48;11.90;99.90
19680;DHT22;9989;48.962;9.182;2023-02-17T08:02:14;11.90;99.90
19680;DHT22;9989;48.962;9.182;2023-02-17T08:04:39;12.00;99.90
19680;DHT22;9989;48.962;9.182;2023-02-17T08:07:05;12.10;99.90
19680;DHT22;9989;48.962;9.182;2023-02-17T08:09:31;12.10;99.90
19680;DHT22;9989;48.962;9.182;2023-02-17T08:12:17;12.20;99.90
19680;DHT22;9989;48.962;9.182;2023-02-17T08:15:03;12.30;99.90
19680;DHT22;9989;48.962;9.182;2023-02-17T08:17:29;12.40;99.90
19680;DHT22;9989;48.962;9.182;2023-02-17T08:19:55;12.50;99.90
19680;DHT22;9989;48.962;9.182;2023-02-17T08:22:21;12.50;99.90
19680;DHT22;9989;48.962;9.182;2023-02-17T08:24:46;12.50;99.90
19680;DHT22;9989;48.962;9.182;2023-02-17T08:27:15;12.50;99.90
19680;DHT22;9989;48.962;9.182;2023-02-17T08:29:41;12.50;99.90
19680;DHT22;9989;48.962;9.182;2023-02-17T08:32:07;12.50;99.90
19680;DHT22;9989;48.962;9.182;2023-02-17T08:34:33;12.50;99.90
19680;DHT22;9989;48.962;9.182;2023-02-17T08:37:00;12.50;99.90
19680;DHT22;9989;48.962;9.182;2023-02-17T08:39:29;12.40;99.90
19680;DHT22;9989;48.962;9.182;2023-02-17T08:41:55;12.40;99.90
19680;DHT22;9989;48.962;9.182;2023-02-17T08:44:20;12.40;99.90
19680;DHT22;9989;48.962;9.182;2023-02-17T08:46:48;12.40;99.90
19680;DHT22;9989;48.962;9.182;2023-02-17T08:49:16;12.40;99.90
19680;DHT22;9989;48.962;9.182;2023-02-17T08:51:42;12.40;99.90
19680;DHT22;9989;48.962;9.182;2023-02-17T08:54:08;12.50;99.90
19680;DHT22;9989;48.962;9.182;2023-02-17T08:56:36;12.40;99.90
19680;DHT22;9989;48.962;9.182;2023-02-17T08:59:02;12.50;99.90
19680;DHT22;9989;48.962;9.182;2023-02-17T09:01:28;12.50;99.90
19680;DHT22;9989;48.962;9.182;2023-02-17T09:03:56;12.50;99.90
19680;DHT22;9989;48.962;9.182;2023-02-17T09:06:22;12.50;99.90
19680;DHT22;9989;48.962;9.182;2023-02-17T09:08:48;12.50;99.90
19680;DHT22;9989;48.962;9.182;2023-02-17T09:11:14;12.50;99.90
19680;DHT22;9989;48.962;9.182;2023-02-17T09:13:42;12.50;99.90
19680;DHT22;9989;48.962;9.182;2023-02-17T09:16:08;12.50;99.90
19680;DHT22;9989;48.962;9.182;2023-02-17T09:18:33;12.50;99.90
19680;DHT22;9989;48.962;9.182;2023-02-17T09:21:05;12.60;99.90
19680;DHT22;9989;48.962;9.182;2023-02-17T09:23:31;12.60;99.90
19680;DHT22;9989;48.962;9.182;2023-02-17T09:26:04;12.60;99.90
19680;DHT22;9989;48.962;9.182;2023-02-17T09:28:31;12.70;99.90
19680;DHT22;9989;48.962;9.182;2023-02-17T09:30:57;12.70;99.90
19680;DHT22;9989;48.962;9.182;2023-02-17T09:33:22;12.70;99.90
19680;DHT22;9989;48.962;9.182;2023-02-17T09:35:48;12.80;99.90
19680;DHT22;9989;48.962;9.182;2023-02-17T09:38:15;12.80;99.90
19680;DHT22;9989;48.962;9.182;2023-02-17T09:40:48;12.80;99.90
19680;DHT22;9989;48.962;9.182;2023-02-17T09:43:16;12.80;99.90
19680;DHT22;9989;48.962;9.182;2023-02-17T09:45:50;12.90;99.90
19680;DHT22;9989;48.962;9.182;2023-02-17T09:48:19;12.90;99.90
19680;DHT22;9989;48.962;9.182;2023-02-17T09:51:05;13.00;99.90
19680;DHT22;9989;48.962;9.182;2023-02-17T09:53:49;13.10;99.90
19680;DHT22;9989;48.962;9.182;2023-02-17T09:56:23;13.20;99.90
19680;DHT22;9989;48.962;9.182;2023-02-17T09:58:52;13.30;99.90
19680;DHT22;9989;48.962;9.182;2023-02-17T10:01:23;13.40;99.90
19680;DHT22;9989;48.962;9.182;2023-02-17T10:07:04;13.60;99.90
19680;DHT22;9989;48.962;9.182;2023-02-17T10:09:33;13.60;99.90
19680;DHT22;9989;48.962;9.182;2023-02-17T10:14:58;13.90;99.90
19680;DHT22;9989;48.962;9.182;2023-02-17T10:17:36;14.00;99.90
19680;DHT22;9989;48.962;9.182;2023-02-17T10:20:14;14.10;99.90
19680;DHT22;9989;48.962;9.182;2023-02-17T10:22:44;14.20;99.90
19680;DHT22;9989;48.962;9.182;2023-02-17T10:25:19;14.10;99.90
19680;DHT22;9989;48.962;9.182;2023-02-17T10:28:08;14.00;99.90
19680;DHT22;9989;48.962;9.182;2023-02-17T10:30:47;13.90;99.90
19680;DHT22;9989;48.962;9.182;2023-02-17T10:33:25;13.70;99.90
19680;DHT22;9989;48.962;9.182;2023-02-17T10:39:01;13.70;99.90
19680;DHT22;9989;48.962;9.182;2023-02-17T10:41:34;13.60;99.90
19680;DHT22;9989;48.962;9.182;2023-02-17T10:44:07;13.60;99.90
19680;DHT22;9989;48.962;9.182;2023-02-17T10:46:33;13.50;99.90
19680;DHT22;9989;48.962;9.182;2023-02-17T10:48:59;13.50;99.90
19680;DHT22;9989;48.962;9.182;2023-02-17T10:51:28;13.40;99.90
19680;DHT22;9989;48.962;9.182;2023-02-17T10:54:06;13.50;99.90
19680;DHT22;9989;48.962;9.182;2023-02-17T10:56:47;13.50;99.90
19680;DHT22;9989;48.962;9.182;2023-02-17T10:59:25;13.40;99.90
19680;DHT22;9989;48.962;9.182;2023-02-17T11:01:57;13.40;99.90
19680;DHT22;9989;48.962;9.182;2023-02-17T11:04:24;13.40;99.90
19680;DHT22;9989;48.962;9.182;2023-02-17T11:06:52;13.40;99.90
19680;DHT22;9989;48.962;9.182;2023-02-17T11:09:22;13.40;99.90
19680;DHT22;9989;48.962;9.182;2023-02-17T11:14:30;13.40;99.90
19680;DHT22;9989;48.962;9.182;2023-02-17T11:17:13;13.50;99.90
19680;DHT22;9989;48.962;9.182;2023-02-17T11:19:39;13.50;99.90
19680;DHT22;9989;48.962;9.182;2023-02-17T11:22:18;13.60;99.90
19680;DHT22;9989;48.962;9.182;2023-02-17T11:24:57;13.70;99.90
19680;DHT22;9989;48.962;9.182;2023-02-17T11:27:24;13.70;99.90
19680;DHT22;9989;48.962;9.182;2023-02-17T11:29:50;13.80;99.90
19680;DHT22;9989;48.962;9.182;2023-02-17T11:32:15;13.80;99.90
19680;DHT22;9989;48.962;9.182;2023-02-17T11:34:55;13.80;99.90
19680;DHT22;9989;48.962;9.182;2023-02-17T11:37:22;13.80;99.90
19680;DHT22;9989;48.962;9.182;2023-02-17T11:39:53;13.80;99.90
19680;DHT22;9989;48.962;9.182;2023-02-17T11:42:23;13.80;99.90
19680;DHT22;9989;48.962;9.182;2023-02-17T11:44:50;13.80;99.90
19680;DHT22;9989;48.962;9.182;2023-02-17T11:53:40;13.90;99.90
19680;DHT22;9989;48.962;9.182;2023-02-17T11:56:03;13.80;99.90
19680;DHT22;9989;48.962;9.182;2023-02-17T12:04:28;13.90;99.90
19680;DHT22;9989;48.962;9.182;2023-02-17T12:07:28;13.90;99.90
19680;DHT22;9989;48.962;9.182;2023-02-17T12:15:51;13.90;99.90
19680;DHT22;9989;48.962;9.182;2023-02-17T12:21:07;13.90;99.90
19680;DHT22;9989;48.962;9.182;2023-02-17T12:23:56;14.00;99.90
19680;DHT22;9989;48.962;9.182;2023-02-17T12:26:35;14.00;99.90
19680;DHT22;9989;48.962;9.182;2023-02-17T12:29:20;14.00;99.90
19680;DHT22;9989;48.962;9.182;2023-02-17T12:37:31;14.20;99.90
19680;DHT22;9989;48.962;9.182;2023-02-17T12:40:15;14.20;99.90
19680;DHT22;9989;48.962;9.182;2023-02-17T12:42:54;14.20;99.90
19680;DHT22;9989;48.962;9.182;2023-02-17T12:45:31;14.20;99.90
19680;DHT22;9989;48.962;9.182;2023-02-17T12:48:03;14.30;99.90
19680;DHT22;9989;48.962;9.182;2023-02-17T12:54:34;14.40;99.90
19680;DHT22;9989;48.962;9.182;2023-02-17T12:59:37;14.50;99.90
19680;DHT22;9989;48.962;9.182;2023-02-17T13:02:04;14.60;99.90
19680;DHT22;9989;48.962;9.182;2023-02-17T13:04:32;14.60;99.90
19680;DHT22;9989;48.962;9.182;2023-02-17T13:09:38;14.80;99.90
19680;DHT22;9989;48.962;9.182;2023-02-17T13:14:57;14.90;99.90
19680;DHT22;9989;48.962;9.182;2023-02-17T13:17:35;14.90;99.90
19680;DHT22;9989;48.962;9.182;2023-02-17T13:20:23;15.00;99.90
19680;DHT22;9989;48.962;9.182;2023-02-17T13:22:49;15.10;99.90
19680;DHT22;9989;48.962;9.182;2023-02-17T13:25:33;15.10;99.90
19680;DHT22;9989;48.962;9.182;2023-02-17T13:28:00;15.10;99.90
19680;DHT22;9989;48.962;9.182;2023-02-17T13:30:40;15.30;99.90
19680;DHT22;9989;48.962;9.182;2023-02-17T13:35:47;15.50;99.90
19680;DHT22;9989;48.962;9.182;2023-02-17T13:38:13;15.50;99.90
19680;DHT22;9989;48.962;9.182;2023-02-17T13:40:50;15.50;99.90
19680;DHT22;9989;48.962;9.182;2023-02-17T13:43:18;15.60;99.90
19680;DHT22;9989;48.962;9.182;2023-02-17T13:48:28;16.00;99.90
19680;DHT22;9989;48.962;9.182;2023-02-17T13:51:02;16.10;99.90
19680;DHT22;9989;48.962;9.182;2023-02-17T13:53:37;16.10;99.90
19680;DHT22;9989;48.962;9.182;2023-02-17T13:56:09;16.00;99.90
19680;DHT22;9989;48.962;9.182;2023-02-17T13:58:40;15.90;99.90
19680;DHT22;9989;48.962;9.182;2023-02-17T14:01:11;15.90;99.90
19680;DHT22;9989;48.962;9.182;2023-02-17T14:03:41;15.80;99.90
19680;DHT22;9989;48.962;9.182;2023-02-17T14:06:20;15.80;99.90
19680;DHT22;9989;48.962;9.182;2023-02-17T14:08:47;15.90;99.90
19680;DHT22;9989;48.962;9.182;2023-02-17T14:11:17;16.30;99.90
19680;DHT22;9989;48.962;9.182;2023-02-17T14:13:45;17.10;99.90
19680;DHT22;9989;48.962;9.182;2023-02-17T14:16:31;18.10;99.90
19680;DHT22;9989;48.962;9.182;2023-02-17T14:19:15;18.50;99.90
19680;DHT22;9989;48.962;9.182;2023-02-17T14:22:04;19.10;99.90
19680;DHT22;9989;48.962;9.182;2023-02-17T14:27:03;20.70;99.90
19680;DHT22;9989;48.962;9.182;2023-02-17T14:29:48;20.90;98.90
19680;DHT22;9989;48.962;9.182;2023-02-17T14:32:27;20.60;98.20
19680;DHT22;9989;48.962;9.182;2023-02-17T14:34:53;20.00;98.60
19680;DHT22;9989;48.962;9.182;2023-02-17T14:37:23;19.60;99.30
19680;DHT22;9989;48.962;9.182;2023-02-17T14:39:49;19.10;99.90
19680;DHT22;9989;48.962;9.182;2023-02-17T14:42:15;18.80;99.90
19680;DHT22;9989;48.962;9.182;2023-02-17T14:44:43;18.60;99.90
19680;DHT22;9989;48.962;9.182;2023-02-17T14:47:09;18.60;99.90
19680;DHT22;9989;48.962;9.182;2023-02-17T14:49:34;19.10;99.90
19680;DHT22;9989;48.962;9.182;2023-02-17T14:52:05;19.80;99.90
19680;DHT22;9989;48.962;9.182;2023-02-17T14:54:38;20.80;97.80
19680;DHT22;9989;48.962;9.182;2023-02-17T14:57:07;21.60;95.30
19680;DHT22;9989;48.962;9.182;2023-02-17T14:59:36;21.80;93.60
19680;DHT22;9989;48.962;9.182;2023-02-17T15:02:02;21.60;93.40
19680;DHT22;9989;48.962;9.182;2023-02-17T15:04:30;21.10;93.80
19680;DHT22;9989;48.962;9.182;2023-02-17T15:06:55;20.40;94.60
19680;DHT22;9989;48.962;9.182;2023-02-17T15:09:28;19.60;96.00
19680;DHT22;9989;48.962;9.182;2023-02-17T15:11:55;18.90;97.60
19680;DHT22;9989;48.962;9.182;2023-02-17T15:14:21;18.50;98.80
19680;DHT22;9989;48.962;9.182;2023-02-17T15:16:47;18.30;99.50
19680;DHT22;9989;48.962;9.182;2023-02-17T15:19:14;18.00;99.90
19680;DHT22;9989;48.962;9.182;2023-02-17T15:21:52;17.70;99.90
19680;DHT22;9989;48.962;9.182;2023-02-17T15:24:25;17.60;99.90
19680;DHT22;9989;48.962;9.182;2023-02-17T15:26:51;17.40;99.90
19680;DHT22;9989;48.962;9.182;2023-02-17T15:29:19;17.20;99.90
19680;DHT22;9989;48.962;9.182;2023-02-17T15:31:45;16.90;99.90
19680;DHT22;9989;48.962;9.182;2023-02-17T15:34:14;16.80;99.90
19680;DHT22;9989;48.962;9.182;2023-02-17T15:36:40;16.60;99.90
19680;DHT22;9989;48.962;9.182;2023-02-17T15:39:12;16.40;99.90
19680;DHT22;9989;48.962;9.182;2023-02-17T15:41:38;16.20;99.90
19680;DHT22;9989;48.962;9.182;2023-02-17T15:44:07;16.20;99.90
19680;DHT22;9989;48.962;9.182;2023-02-17T15:46:36;16.10;99.90
19680;DHT22;9989;48.962;9.182;2023-02-17T15:49:03;16.10;99.90
19680;DHT22;9989;48.962;9.182;2023-02-17T15:51:30;15.90;99.90
19680;DHT22;9989;48.962;9.182;2023-02-17T15:53:55;15.80;99.90
19680;DHT22;9989;48.962;9.182;2023-02-17T15:56:24;15.50;99.90
19680;DHT22;9989;48.962;9.182;2023-02-17T15:58:52;15.30;99.90
19680;DHT22;9989;48.962;9.182;2023-02-17T16:01:28;15.20;99.90
19680;DHT22;9989;48.962;9.182;2023-02-17T16:03:54;15.00;99.90
19680;DHT22;9989;48.962;9.182;2023-02-17T16:06:20;14.90;99.90
19680;DHT22;9989;48.962;9.182;2023-02-17T16:08:46;14.80;99.90
19680;DHT22;9989;48.962;9.182;2023-02-17T16:11:12;14.70;99.90
19680;DHT22;9989;48.962;9.182;2023-02-17T16:13:40;14.60;99.90
19680;DHT22;9989;48.962;9.182;2023-02-17T16:16:16;14.60;99.90
19680;DHT22;9989;48.962;9.182;2023-02-17T16:18:43;14.50;99.90
19680;DHT22;9989;48.962;9.182;2023-02-17T16:21:09;14.40;99.90
19680;DHT22;9989;48.962;9.182;2023-02-17T16:23:35;14.40;99.90
19680;DHT22;9989;48.962;9.182;2023-02-17T16:26:01;14.30;99.90
19680;DHT22;9989;48.962;9.182;2023-02-17T16:28:31;14.30;99.90
19680;DHT22;9989;48.962;9.182;2023-02-17T16:30:57;14.20;99.90
19680;DHT22;9989;48.962;9.182;2023-02-17T16:33:23;14.20;99.90
19680;DHT22;9989;48.962;9.182;2023-02-17T16:35:49;14.10;99.90
19680;DHT22;9989;48.962;9.182;2023-02-17T16:38:21;14.10;99.90
19680;DHT22;9989;48.962;9.182;2023-02-17T16:40:49;14.10;99.90
19680;DHT22;9989;48.962;9.182;2023-02-17T16:43:17;14.10;99.90
19680;DHT22;9989;48.962;9.182;2023-02-17T16:45:53;14.10;99.90
19680;DHT22;9989;48.962;9.182;2023-02-17T16:48:22;14.10;99.90
19680;DHT22;9989;48.962;9.182;2023-02-17T16:50:48;14.10;99.90
19680;DHT22;9989;48.962;9.182;2023-02-17T16:53:14;14.10;99.90
19680;DHT22;9989;48.962;9.182;2023-02-17T16:55:40;14.10;99.90
19680;DHT22;9989;48.962;9.182;2023-02-17T16:58:17;14.10;99.90
19680;DHT22;9989;48.962;9.182;2023-02-17T17:00:45;14.00;99.90
19680;DHT22;9989;48.962;9.182;2023-02-17T17:03:11;13.90;99.90
19680;DHT22;9989;48.962;9.182;2023-02-17T17:05:37;13.90;99.90
19680;DHT22;9989;48.962;9.182;2023-02-17T17:08:04;13.90;99.90
19680;DHT22;9989;48.962;9.182;2023-02-17T17:10:31;13.90;99.90
19680;DHT22;9989;48.962;9.182;2023-02-17T17:12:58;13.90;99.90
19680;DHT22;9989;48.962;9.182;2023-02-17T17:15:25;13.80;99.90
19680;DHT22;9989;48.962;9.182;2023-02-17T17:18:01;13.80;99.90
19680;DHT22;9989;48.962;9.182;2023-02-17T17:20:35;13.80;99.90
19680;DHT22;9989;48.962;9.182;2023-02-17T17:23:11;13.80;99.90